Fort Resolution, Canada
Current Conditions -  °F | °C
As of 9:00 AM on Friday 21 Nov 2014 (Local Time) from CYHY Reporting Station
Light Snow Light Snow  
Wind Chill: -4°   Ceiling: 1400
Heat Index:   Visibility: 10mi
Dew Point:   Wind: 8mph
Humidity: 85%   Direction: 340°NNW
Pressure: 29.77"   Gusts: NA
Location:  61.17°N, 113.68°W
Report Text: CYHY 211600Z 34007KT 10SM -SN OVC014 M13/M15 A2977 RMK SC8 SLP097
Loading
Personal Weather Stations






























Interactive Weather Map New forecast layout! Learn more

10-Day Weather Forecast

Advertisements
Track Severe Weather on mobile